Porter Square, Massachusetts
Current Conditions -  °F | °C
As of 3:54 AM on Friday 21 Nov 2014 (Local Time) from KBOS Reporting Station
Clear Clear  
Wind Chill: 18°   Ceiling: Unl
Heat Index: 29°   Visibility: 10mi
Dew Point: 13°   Wind: 15mph
Humidity: 51%   Direction: 280°W
Pressure: 29.97"   Gusts: 23mph
Location:  42.3933°N, 71.1333°W
Report Text: KBOS 210854Z 28013G20KT 10SM CLR M02/M11 A2997 RMK AO2 SLP147 T10171106 51012
Loading
Personal Weather Stations






























Interactive Weather Map New forecast layout! Learn more

10-Day Weather Forecast

Advertisements
Track Severe Weather on mobile